Time;durP1;ratioP1;P1;durP2;ratioP2;P2;SDS_P1;SDS_P2;PMS_P1;PMS_P2;Temp;Humidity;BMP_temperature;BMP_pressure;BME280_temperature;BME280_humidity;BME280_pressure;Samples;Min_cycle;Max_cycle;Signal;HPM_P1;HPM_P2
2023/11/18 00:00:55;;;;;;;1.50;1.40;;;;;;;19.32;54.19;97646.59;105522;1258;61234;-41
2023/11/18 00:03:22;;;;;;;1.30;1.20;;;;;;;19.31;54.07;97646.52;105583;1258;61339;-41
2023/11/18 00:05:48;;;;;;;2.50;1.20;;;;;;;19.31;54.20;97649.23;105455;1258;74623;-41
2023/11/18 00:08:15;;;;;;;2.00;1.20;;;;;;;19.31;54.17;97648.76;105500;1254;65910;-41
2023/11/18 00:10:42;;;;;;;1.80;1.50;;;;;;;19.31;54.25;97651.86;105451;1254;72375;-41
2023/11/18 00:13:09;;;;;;;1.50;1.40;;;;;;;19.30;54.16;97653.55;105659;1258;61227;-41
2023/11/18 00:15:36;;;;;;;2.60;1.50;;;;;;;19.30;54.08;97657.04;105876;1254;61230;-41
2023/11/18 00:18:03;;;;;;;1.50;1.20;;;;;;;19.30;54.26;97658.83;105836;1257;74559;-41
2023/11/18 00:20:30;;;;;;;1.40;1.20;;;;;;;19.30;54.06;97660.52;105729;1257;65565;-41
2023/11/18 00:22:57;;;;;;;1.30;1.20;;;;;;;19.30;54.13;97665.31;105938;1254;72374;-41
2023/11/18 00:25:24;;;;;;;1.60;1.30;;;;;;;19.29;54.14;97669.35;105767;1257;61237;-41
2023/11/18 00:27:51;;;;;;;1.30;1.20;;;;;;;19.29;54.05;97672.76;105855;1254;61236;-41
2023/11/18 00:30:17;;;;;;;1.40;1.30;;;;;;;19.29;54.05;97675.94;105748;1255;74679;-41
2023/11/18 00:32:44;;;;;;;1.10;1.00;;;;;;;19.29;54.11;97675.00;105708;1257;65873;-41
2023/11/18 00:35:11;;;;;;;1.30;1.20;;;;;;;19.29;54.13;97677.10;105596;1254;72496;-41
2023/11/18 00:37:38;;;;;;;1.30;1.20;;;;;;;19.28;54.12;97679.57;105700;1259;61250;-41
2023/11/18 00:40:07;;;;;;;2.20;1.40;;;;;;;19.28;54.15;97680.88;105776;1257;61248;-41
2023/11/18 00:42:33;;;;;;;1.40;1.30;;;;;;;19.28;54.16;97682.73;105811;1257;74658;-41
2023/11/18 00:45:00;;;;;;;1.50;1.30;;;;;;;19.28;54.12;97681.81;105605;1256;65538;-41
2023/11/18 00:47:27;;;;;;;1.40;1.30;;;;;;;19.28;54.19;97682.52;105978;1254;72548;-42
2023/11/18 00:49:54;;;;;;;1.70;1.50;;;;;;;19.28;54.10;97679.01;105594;1257;61273;-41
2023/11/18 00:52:21;;;;;;;0.90;0.90;;;;;;;19.28;54.15;97681.40;106323;1256;61110;-41
2023/11/18 00:54:47;;;;;;;1.40;1.20;;;;;;;19.27;54.05;97680.38;105854;1257;74582;-41
2023/11/18 00:57:14;;;;;;;1.20;1.10;;;;;;;19.28;54.08;97682.11;105854;1257;66136;-41
2023/11/18 00:59:43;;;;;;;1.50;1.20;;;;;;;19.27;54.03;97684.82;105954;1254;72295;-41
2023/11/18 01:02:10;;;;;;;1.70;1.30;;;;;;;19.27;54.02;97687.91;105842;1257;61240;-41
2023/11/18 01:04:37;;;;;;;2.70;1.30;;;;;;;19.27;54.06;97684.48;105807;1254;61232;-41
2023/11/18 01:07:04;;;;;;;1.40;1.30;;;;;;;19.27;54.02;97685.04;105797;1258;74477;-41
2023/11/18 01:09:36;;;;;;;1.70;1.20;;;;;;;19.27;54.01;97687.21;105529;1260;66019;-41
2023/11/18 01:12:04;;;;;;;1.70;1.20;;;;;;;19.26;54.05;97682.77;105470;1254;72468;-41
2023/11/18 01:14:38;;;;;;;1.80;1.20;;;;;;;19.25;54.04;97683.69;105448;1255;61377;-41
2023/11/18 01:17:06;;;;;;;1.70;1.20;;;;;;;19.26;54.07;97689.75;105403;1254;61145;-41
2023/11/18 01:19:35;;;;;;;2.80;1.40;;;;;;;19.25;54.00;97688.19;105584;1257;74531;-40
2023/11/18 01:22:05;;;;;;;1.80;1.20;;;;;;;19.26;54.06;97690.36;106254;1255;66473;-41
2023/11/18 01:24:33;;;;;;;1.40;1.30;;;;;;;19.25;54.04;97689.48;105757;1257;70782;-41
2023/11/18 01:26:59;;;;;;;1.60;1.20;;;;;;;19.25;54.22;97689.79;105724;1254;61249;-41
2023/11/18 01:29:26;;;;;;;1.40;1.30;;;;;;;19.25;54.11;97690.73;105797;1254;61273;-41
2023/11/18 01:31:55;;;;;;;1.20;1.10;;;;;;;19.25;54.10;97687.63;105791;1254;74698;-41
2023/11/18 01:34:22;;;;;;;1.30;1.10;;;;;;;19.25;54.09;97690.13;105727;1257;66195;-41
2023/11/18 01:36:50;;;;;;;1.30;1.20;;;;;;;19.25;54.07;97693.52;105391;1254;72689;-41
2023/11/18 01:39:20;;;;;;;1.90;1.20;;;;;;;19.24;54.06;97692.66;105554;1257;61340;-41
2023/11/18 01:41:48;;;;;;;1.70;1.10;;;;;;;19.24;54.16;97693.73;105607;1254;61320;-41
2023/11/18 01:44:15;;;;;;;1.40;1.10;;;;;;;19.24;54.07;97697.70;105853;1254;74664;-41
2023/11/18 01:46:44;;;;;;;1.20;1.10;;;;;;;19.24;53.97;97700.95;105461;1260;66292;-41
2023/11/18 01:49:13;;;;;;;3.40;1.20;;;;;;;19.23;54.11;97701.73;105328;1254;72577;-41
2023/11/18 01:51:43;;;;;;;2.60;1.40;;;;;;;19.23;54.00;97699.55;105464;1257;61253;-41
2023/11/18 01:54:14;;;;;;;1.30;1.20;;;;;;;19.23;54.04;97696.97;105577;1255;61299;-41
2023/11/18 01:56:43;;;;;;;2.00;1.10;;;;;;;19.23;54.02;97703.01;105856;1254;74569;-41
2023/11/18 01:59:16;;;;;;;1.50;1.10;;;;;;;19.23;53.92;97708.99;105618;1254;66209;-41
2023/11/18 02:01:49;;;;;;;3.20;1.40;;;;;;;19.23;54.03;97705.50;105531;1254;72577;-41
2023/11/18 02:04:16;;;;;;;1.50;1.20;;;;;;;19.23;54.01;97713.10;105693;1260;61196;-41
2023/11/18 02:06:44;;;;;;;2.00;1.10;;;;;;;19.22;53.97;97712.16;105826;1257;61362;-41
2023/11/18 02:09:12;;;;;;;1.70;1.30;;;;;;;19.23;53.98;97715.50;105616;1254;74631;-41
2023/11/18 02:11:50;;;;;;;1.40;1.00;;;;;;;19.22;54.07;97717.83;105319;1254;66024;-40
2023/11/18 02:14:16;;;;;;;2.40;1.20;;;;;;;19.22;54.05;97720.30;105663;1256;72671;-40
2023/11/18 02:16:43;;;;;;;2.90;1.20;;;;;;;19.22;54.04;97722.70;105500;1259;61271;-42
2023/11/18 02:19:19;;;;;;;1.50;1.30;;;;;;;19.22;54.04;97726.74;105498;1254;61377;-42
2023/11/18 02:21:45;;;;;;;1.60;1.30;;;;;;;19.22;54.02;97727.35;105501;1254;74425;-40
2023/11/18 02:24:29;;;;;;;1.60;1.10;;;;;;;19.21;54.00;97728.35;105483;1261;65535;-42
2023/11/18 02:26:57;;;;;;;1.10;1.10;;;;;;;19.21;53.97;97728.95;105597;1253;72433;-40
2023/11/18 02:29:25;;;;;;;1.40;1.20;;;;;;;19.21;54.01;97728.27;105774;1257;61228;-42
2023/11/18 02:31:52;;;;;;;1.70;1.20;;;;;;;19.21;53.99;97725.09;105588;1254;62884;-40
2023/11/18 02:34:23;;;;;;;2.40;1.30;;;;;;;19.21;54.00;97730.65;105509;1259;74437;-43
2023/11/18 02:36:50;;;;;;;2.00;1.10;;;;;;;19.20;54.02;97728.70;105650;1260;65165;-42
2023/11/18 02:39:31;;;;;;;1.50;1.20;;;;;;;19.20;53.92;97730.88;105491;1254;72623;-42
2023/11/18 02:41:57;;;;;;;1.80;1.10;;;;;;;19.20;53.93;97738.16;105712;1257;61369;-42
2023/11/18 02:44:25;;;;;;;1.20;1.10;;;;;;;19.20;53.95;97737.94;105904;1256;61233;-40
2023/11/18 02:46:51;;;;;;;1.30;1.20;;;;;;;19.20;53.88;97738.63;105827;1254;73887;-41
2023/11/18 02:49:18;;;;;;;1.10;1.00;;;;;;;19.20;53.92;97738.63;105825;1257;65806;-41
2023/11/18 02:51:47;;;;;;;1.70;1.30;;;;;;;19.20;53.92;97742.65;105627;1254;72407;-41
2023/11/18 02:54:16;;;;;;;1.60;1.10;;;;;;;19.19;53.92;97741.57;105893;1257;61335;-41
2023/11/18 02:56:42;;;;;;;1.40;1.30;;;;;;;19.19;53.91;97743.66;105885;1254;61323;-41
2023/11/18 02:59:10;;;;;;;1.80;1.10;;;;;;;19.19;53.95;97743.35;105815;1253;74787;-41
2023/11/18 03:01:39;;;;;;;1.10;1.00;;;;;;;19.19;53.97;97744.49;105696;1259;66170;-41
2023/11/18 03:04:06;;;;;;;1.10;1.00;;;;;;;19.18;53.88;97743.95;105859;1254;72530;-41
2023/11/18 03:06:33;;;;;;;1.90;1.10;;;;;;;19.19;53.89;97744.66;105768;1257;61260;-41
2023/11/18 03:09:00;;;;;;;1.40;1.00;;;;;;;19.18;53.85;97749.77;105857;1254;61231;-41
2023/11/18 03:11:30;;;;;;;1.40;1.10;;;;;;;19.18;53.94;97747.44;105886;1254;74471;-41
2023/11/18 03:13:57;;;;;;;1.70;1.20;;;;;;;19.18;53.93;97750.52;105730;1256;65018;-40
2023/11/18 03:16:24;;;;;;;1.30;1.20;;;;;;;19.18;53.90;97753.24;105568;1254;72748;-41
2023/11/18 03:18:51;;;;;;;1.10;1.00;;;;;;;19.18;53.92;97757.75;105607;1257;61237;-42
2023/11/18 03:21:19;;;;;;;1.90;1.10;;;;;;;19.17;53.93;97757.58;105689;1254;61256;-40
2023/11/18 03:23:46;;;;;;;0.90;0.90;;;;;;;19.17;53.87;97757.88;105729;1259;74559;-40
2023/11/18 03:26:12;;;;;;;1.10;1.00;;;;;;;19.18;53.93;97760.84;105824;1257;66032;-42
2023/11/18 03:28:40;;;;;;;1.30;1.20;;;;;;;19.17;53.91;97765.33;105819;1254;72567;-42
2023/11/18 03:31:07;;;;;;;2.00;0.90;;;;;;;19.17;53.85;97765.56;105629;1257;61272;-42
2023/11/18 03:33:33;;;;;;;1.00;0.90;;;;;;;19.17;53.79;97767.41;105585;1254;61679;-42
2023/11/18 03:36:00;;;;;;;1.30;1.20;;;;;;;19.16;53.99;97767.00;105501;1254;74515;-42
2023/11/18 03:38:29;;;;;;;1.30;1.00;;;;;;;19.16;53.92;97769.41;105587;1257;65907;-42
2023/11/18 03:40:58;;;;;;;2.10;1.20;;;;;;;19.16;53.80;97770.86;105744;1254;72594;-42
2023/11/18 03:43:25;;;;;;;1.50;1.10;;;;;;;19.16;53.76;97772.91;105873;1257;61336;-42
2023/11/18 03:45:56;;;;;;;1.00;0.90;;;;;;;19.16;53.79;97770.80;105915;1254;61350;-42
2023/11/18 03:48:23;;;;;;;1.20;1.10;;;;;;;19.16;53.89;97775.21;105851;1254;75160;-43
2023/11/18 03:50:50;;;;;;;1.80;1.00;;;;;;;19.16;53.80;97773.27;105813;1257;66168;-40
2023/11/18 03:53:17;;;;;;;1.20;1.00;;;;;;;19.16;53.90;97771.41;105588;1256;72619;-42
2023/11/18 03:55:43;;;;;;;1.40;1.20;;;;;;;19.15;53.84;97775.21;105458;1257;61261;-43
2023/11/18 03:58:10;;;;;;;1.30;1.00;;;;;;;19.15;53.95;97778.31;105543;1257;61231;-42
2023/11/18 04:00:36;;;;;;;1.10;1.00;;;;;;;19.15;53.87;97779.86;105467;1254;74545;-43
2023/11/18 04:03:07;;;;;;;1.80;1.20;;;;;;;19.15;53.84;97780.09;105544;1257;66261;-42
2023/11/18 04:05:34;;;;;;;1.60;1.20;;;;;;;19.15;53.84;97780.32;105598;1254;72369;-42
2023/11/18 04:08:01;;;;;;;1.00;0.90;;;;;;;19.14;53.89;97780.94;105875;1256;61654;-42
2023/11/18 04:10:28;;;;;;;1.20;1.10;;;;;;;19.15;53.74;97782.27;105839;1254;61426;-42
2023/11/18 04:12:55;;;;;;;1.50;1.10;;;;;;;19.13;53.83;97780.30;105812;1254;75635;-40
2023/11/18 04:15:22;;;;;;;1.50;1.10;;;;;;;19.14;53.79;97783.72;105828;1254;66963;-40
2023/11/18 04:17:48;;;;;;;1.00;1.00;;;;;;;19.14;53.82;97784.02;105712;1254;72331;-43
2023/11/18 04:20:15;;;;;;;1.30;1.20;;;;;;;19.14;53.83;97785.19;105639;1258;61231;-42
2023/11/18 04:22:43;;;;;;;1.50;1.00;;;;;;;19.14;53.84;97786.98;105908;1254;61257;-42
2023/11/18 04:25:10;;;;;;;1.10;1.00;;;;;;;19.13;53.82;97790.84;105849;1257;74604;-42
2023/11/18 04:27:38;;;;;;;2.10;1.30;;;;;;;19.13;53.70;97793.34;105914;1257;65749;-40
2023/11/18 04:30:05;;;;;;;1.20;1.10;;;;;;;19.14;53.82;97797.67;105849;1254;72602;-42
2023/11/18 04:32:32;;;;;;;1.00;0.90;;;;;;;19.13;53.81;97797.65;105988;1258;63106;-42
2023/11/18 04:34:59;;;;;;;1.30;1.20;;;;;;;19.13;53.76;97798.74;105702;1254;61332;-42
2023/11/18 04:37:26;;;;;;;1.20;1.10;;;;;;;19.12;53.78;97802.22;105983;1259;75640;-40
2023/11/18 04:39:55;;;;;;;2.30;1.10;;;;;;;19.12;53.78;97796.77;105882;1257;65978;-40
2023/11/18 04:42:21;;;;;;;1.20;1.00;;;;;;;19.12;53.75;97799.19;106189;1254;72478;-42
2023/11/18 04:44:48;;;;;;;1.20;1.10;;;;;;;19.12;53.76;97799.80;105731;1257;61228;-42
2023/11/18 04:47:14;;;;;;;1.10;1.00;;;;;;;19.12;53.66;97803.14;106411;1253;61122;-42
2023/11/18 04:49:42;;;;;;;1.60;1.20;;;;;;;19.12;53.72;97806.39;105635;1257;74349;-42
2023/11/18 04:52:08;;;;;;;1.30;1.10;;;;;;;19.12;53.90;97805.47;105712;1257;64722;-42
2023/11/18 04:54:35;;;;;;;1.40;0.90;;;;;;;19.11;53.77;97807.78;105523;1254;72399;-43
2023/11/18 04:57:03;;;;;;;2.40;0.90;;;;;;;19.11;53.66;97812.12;105695;1257;61358;-42
2023/11/18 04:59:32;;;;;;;1.30;1.10;;;;;;;19.11;53.82;97812.51;105645;1253;61329;-41
2023/11/18 05:01:59;;;;;;;1.60;1.00;;;;;;;19.11;53.75;97812.51;105520;1254;74570;-41
2023/11/18 05:04:26;;;;;;;1.10;1.00;;;;;;;19.11;53.70;97815.98;105548;1256;65566;-42
2023/11/18 05:06:52;;;;;;;1.20;1.10;;;;;;;19.11;53.74;97820.49;105541;1254;61282;-41
2023/11/18 05:09:19;;;;;;;1.20;1.00;;;;;;;19.10;53.67;97818.79;105528;1257;61269;-40
2023/11/18 05:11:46;;;;;;;0.80;0.80;;;;;;;19.11;53.74;97822.89;105658;1254;61253;-41
2023/11/18 05:14:12;;;;;;;1.00;1.00;;;;;;;19.10;53.67;97821.16;105789;1254;73330;-41
2023/11/18 05:16:39;;;;;;;0.80;0.80;;;;;;;19.10;53.78;97821.88;105620;1256;65483;-41
2023/11/18 05:19:07;;;;;;;1.20;1.10;;;;;;;19.10;53.87;97825.13;105532;1257;72623;-41
2023/11/18 05:21:34;;;;;;;1.10;1.00;;;;;;;19.10;53.70;97828.91;105614;1257;61230;-41
2023/11/18 05:24:00;;;;;;;1.10;1.00;;;;;;;19.09;53.79;97833.34;105763;1254;61262;-41
2023/11/18 05:26:27;;;;;;;1.10;1.00;;;;;;;19.09;53.66;97832.79;105694;1256;74844;-41
2023/11/18 05:28:54;;;;;;;1.00;1.00;;;;;;;19.10;53.69;97837.98;105495;1257;65676;-41
2023/11/18 05:31:21;;;;;;;2.50;0.90;;;;;;;19.09;53.83;97841.47;105507;1254;72294;-41
2023/11/18 05:33:51;;;;;;;1.00;0.90;;;;;;;19.09;53.73;97842.55;105533;1256;61224;-41
2023/11/18 05:36:26;;;;;;;1.00;0.90;;;;;;;19.09;53.68;97846.97;105584;1254;61349;-41
2023/11/18 05:38:53;;;;;;;;;;;;;;;19.09;53.71;97847.11;105836;1257;74379;-41
2023/11/18 05:41:27;;;;;;;1.00;0.90;;;;;;;19.08;53.70;97851.13;105584;1258;65850;-41
2023/11/18 05:43:57;;;;;;;1.60;1.00;;;;;;;19.08;53.72;97855.94;105551;1254;72509;-41
2023/11/18 05:46:25;;;;;;;0.70;0.70;;;;;;;19.07;53.78;97858.87;105778;1257;61258;-41
2023/11/18 05:48:52;;;;;;;1.30;1.10;;;;;;;19.07;53.67;97854.91;105796;1254;61338;-40
2023/11/18 05:51:21;;;;;;;1.00;0.90;;;;;;;19.07;53.66;97861.97;105650;1257;74382;-42
2023/11/18 05:53:48;;;;;;;1.10;1.00;;;;;;;19.08;53.72;97871.05;105674;1254;66052;-41
2023/11/18 05:56:16;;;;;;;1.10;1.00;;;;;;;19.07;53.70;97871.35;105758;1254;72784;-41
2023/11/18 05:58:43;;;;;;;1.20;0.90;;;;;;;19.07;53.64;97877.77;105609;1254;61343;-40
2023/11/18 06:01:11;;;;;;;0.80;0.80;;;;;;;19.07;53.63;97880.71;105578;1254;61205;-41
2023/11/18 06:03:41;;;;;;;1.00;0.90;;;;;;;19.07;53.78;97885.70;105591;1254;74421;-41
2023/11/18 06:06:09;;;;;;;0.90;0.90;;;;;;;19.07;53.75;97888.41;105721;1256;66157;-41
2023/11/18 06:08:41;;;;;;;1.10;1.00;;;;;;;19.07;53.83;97894.55;105800;1254;70957;-40
2023/11/18 06:11:14;;;;;;;1.40;1.00;;;;;;;19.07;53.62;97895.85;105605;1257;61126;-41
2023/11/18 06:13:42;;;;;;;1.60;0.90;;;;;;;19.06;53.67;97900.10;105767;1256;61257;-41
2023/11/18 06:16:14;;;;;;;1.10;0.90;;;;;;;19.06;53.63;97901.73;105545;1254;74773;-41
2023/11/18 06:18:46;;;;;;;0.90;0.90;;;;;;;19.06;53.60;97905.91;105601;1259;66275;-41
2023/11/18 06:21:24;;;;;;;2.60;1.00;;;;;;;19.06;53.68;97911.19;105786;1253;72323;-41
2023/11/18 06:23:51;;;;;;;1.40;0.90;;;;;;;19.06;53.56;97906.75;105768;1256;61237;-41
2023/11/18 06:26:18;;;;;;;2.60;0.90;;;;;;;19.06;53.58;97912.81;105771;1254;61676;-41
2023/11/18 06:28:48;;;;;;;2.50;0.90;;;;;;;19.06;53.70;97910.77;105807;1256;74489;-41
2023/11/18 06:31:15;;;;;;;2.20;1.00;;;;;;;19.06;53.73;97914.89;105810;1257;64938;-41
2023/11/18 06:33:45;;;;;;;1.30;1.20;;;;;;;19.06;53.64;97920.41;105811;1254;72867;-41
2023/11/18 06:36:21;;;;;;;1.30;0.80;;;;;;;19.06;53.68;97926.61;105716;1254;61273;-41
2023/11/18 06:38:52;;;;;;;1.40;0.90;;;;;;;19.06;53.74;97931.40;105594;1254;61365;-41
2023/11/18 06:41:23;;;;;;;3.00;1.20;;;;;;;19.06;53.70;97938.08;105479;1257;74676;-41
2023/11/18 06:44:33;;;;;;;0.90;0.80;;;;;;;19.05;53.68;97939.77;105744;1257;64865;-41
2023/11/18 06:46:39;;;;;;;1.20;1.00;;;;;;;19.06;53.58;97939.64;105530;1254;72630;-40
2023/11/18 06:49:07;;;;;;;3.30;1.00;;;;;;;19.05;53.69;97944.65;105580;1257;61227;-41
2023/11/18 06:51:35;;;;;;;3.20;0.80;;;;;;;19.06;53.49;97950.95;105568;1254;61278;-41
2023/11/18 06:54:13;;;;;;;1.70;1.00;;;;;;;19.06;53.63;97952.20;105620;1254;74344;-41
2023/11/18 06:56:43;;;;;;;0.90;0.90;;;;;;;19.06;53.72;97954.67;105680;1254;66197;-41
2023/11/18 06:59:13;;;;;;;2.50;1.00;;;;;;;19.06;53.60;97957.39;105707;1257;72451;-41
2023/11/18 07:01:45;;;;;;;1.40;1.00;;;;;;;19.05;53.65;97955.52;105714;1253;61231;-41
2023/11/18 07:04:14;;;;;;;2.00;1.00;;;;;;;19.05;53.62;97958.23;105626;1254;61247;-41
2023/11/18 07:06:41;;;;;;;1.10;0.90;;;;;;;19.05;53.66;97961.11;105630;1254;73508;-40
2023/11/18 07:09:13;;;;;;;1.90;1.00;;;;;;;19.05;53.66;97960.25;105825;1257;65888;-40
2023/11/18 07:11:40;;;;;;;1.40;0.90;;;;;;;19.05;53.58;97959.32;105737;1254;72363;-41
2023/11/18 07:14:09;;;;;;;2.50;1.00;;;;;;;19.06;53.52;97964.67;105722;1257;61912;-41
2023/11/18 07:16:35;;;;;;;0.90;0.80;;;;;;;19.06;53.55;97961.42;105672;1254;61204;-41
2023/11/18 07:19:03;;;;;;;2.80;1.00;;;;;;;19.05;53.52;97958.23;105576;1257;74476;-41
2023/11/18 07:21:30;;;;;;;2.00;1.20;;;;;;;19.05;53.55;97960.24;105546;1257;66035;-41
2023/11/18 07:23:56;;;;;;;2.80;1.10;;;;;;;19.05;53.56;97964.74;105742;1254;72469;-41
2023/11/18 07:26:23;;;;;;;1.30;1.00;;;;;;;19.05;53.57;97968.55;105733;1257;61279;-41
2023/11/18 07:28:51;;;;;;;2.80;1.10;;;;;;;19.05;53.70;97969.32;105773;1254;61266;-41
2023/11/18 07:31:18;;;;;;;1.30;1.00;;;;;;;19.05;53.63;97973.81;105574;1257;74649;-41
2023/11/18 07:33:49;;;;;;;1.30;1.00;;;;;;;19.05;53.63;97979.95;105768;1257;65680;-41
2023/11/18 07:36:16;;;;;;;1.10;1.00;;;;;;;19.05;53.59;97981.02;105776;1253;73749;-41
2023/11/18 07:38:42;;;;;;;1.30;1.00;;;;;;;19.06;53.57;97984.61;105779;1254;61285;-41
2023/11/18 07:41:09;;;;;;;1.80;1.40;;;;;;;19.05;53.62;97988.16;105523;1253;61227;-41
2023/11/18 07:43:41;;;;;;;1.40;0.90;;;;;;;19.05;53.52;97986.77;105521;1257;74479;-40
2023/11/18 07:46:08;;;;;;;1.00;0.90;;;;;;;19.05;53.63;97991.18;105550;1257;65808;-40
2023/11/18 07:48:35;;;;;;;1.10;1.00;;;;;;;19.05;53.62;97992.50;105635;1254;73074;-41
2023/11/18 07:51:01;;;;;;;1.80;1.00;;;;;;;19.05;53.47;97994.91;105580;1258;61238;-41
2023/11/18 07:53:29;;;;;;;2.20;1.10;;;;;;;19.05;53.49;98000.17;105773;1254;61229;-41
2023/11/18 07:55:56;;;;;;;1.30;1.00;;;;;;;19.05;53.53;97999.32;105836;1254;74394;-41
2023/11/18 07:58:23;;;;;;;1.50;1.00;;;;;;;19.05;53.61;97999.95;105631;1257;66093;-42
2023/11/18 08:00:50;;;;;;;1.10;0.90;;;;;;;19.04;53.63;97998.09;105562;1254;72612;-41
2023/11/18 08:03:16;;;;;;;1.40;1.20;;;;;;;19.05;53.45;97997.15;105620;1257;61260;-41
2023/11/18 08:05:44;;;;;;;1.90;1.10;;;;;;;19.05;53.46;98001.41;105749;1257;61195;-41
2023/11/18 08:08:12;;;;;;;1.20;1.10;;;;;;;19.05;53.58;98001.34;105714;1254;74551;-41
2023/11/18 08:10:39;;;;;;;1.20;1.00;;;;;;;19.05;53.50;98003.98;105761;1254;65894;-41
2023/11/18 08:13:07;;;;;;;1.20;1.10;;;;;;;19.04;53.58;97999.77;105761;1254;72493;-41
2023/11/18 08:15:35;;;;;;;2.40;1.30;;;;;;;19.04;53.52;97999.02;105754;1253;61253;-41
2023/11/18 08:18:02;;;;;;;0.90;0.90;;;;;;;19.05;53.50;97999.33;105524;1254;61331;-41
2023/11/18 08:20:30;;;;;;;1.30;1.20;;;;;;;19.04;53.56;97997.61;105638;1257;74558;-41
2023/11/18 08:22:57;;;;;;;1.20;1.00;;;;;;;19.04;53.45;98000.54;105735;1256;66078;-41
2023/11/18 08:25:23;;;;;;;1.00;0.90;;;;;;;19.03;53.53;98002.46;105701;1254;72590;-40
2023/11/18 08:27:50;;;;;;;1.50;1.10;;;;;;;19.04;53.51;98007.67;105639;1257;61231;-41
2023/11/18 08:30:17;;;;;;;1.10;1.00;;;;;;;19.04;53.43;98011.09;105718;1254;61393;-41
2023/11/18 08:32:45;;;;;;;1.70;1.30;;;;;;;19.04;53.33;98013.86;105673;1254;74393;-41
2023/11/18 08:35:15;;;;;;;1.00;0.90;;;;;;;19.03;53.48;98017.89;105600;1257;65967;-40
2023/11/18 08:37:42;;;;;;;1.50;1.00;;;;;;;19.04;53.35;98020.31;105588;1254;72485;-41
2023/11/18 08:40:14;;;;;;;1.20;1.10;;;;;;;19.03;53.50;98016.04;105501;1258;61254;-41
2023/11/18 08:42:49;;;;;;;1.70;1.00;;;;;;;19.03;53.52;98016.04;105703;1253;61250;-41
2023/11/18 08:45:16;;;;;;;1.20;0.90;;;;;;;19.03;53.42;98018.98;105740;1254;74729;-41
2023/11/18 08:47:44;;;;;;;1.10;1.00;;;;;;;19.03;53.43;98019.90;105709;1257;65486;-41
2023/11/18 08:50:12;;;;;;;1.70;1.10;;;;;;;19.03;53.53;98019.58;105775;1253;72961;-40
2023/11/18 08:52:43;;;;;;;1.20;1.10;;;;;;;19.03;53.44;98021.38;105736;1257;61237;-40
2023/11/18 08:55:21;;;;;;;1.60;1.20;;;;;;;19.03;53.47;98023.39;105854;1254;61244;-41
2023/11/18 08:57:52;;;;;;;1.30;1.20;;;;;;;19.03;53.35;98020.38;105763;1257;74386;-41
2023/11/18 09:03:05;;;;;;;5.30;1.20;;;;;;;19.03;53.44;98025.48;105746;1254;72352;-41
2023/11/18 09:05:33;;;;;;;1.30;1.20;;;;;;;19.02;53.47;98024.15;105800;1258;61237;-40
2023/11/18 09:08:02;;;;;;;2.80;1.00;;;;;;;19.02;53.54;98026.64;105804;1256;61390;-41
2023/11/18 09:10:29;;;;;;;1.30;1.20;;;;;;;19.02;53.40;98023.92;105629;1254;74489;-40
2023/11/18 09:12:55;;;;;;;1.90;1.30;;;;;;;19.03;53.34;98024.56;105712;1257;66258;-42
2023/11/18 09:15:24;;;;;;;1.50;1.00;;;;;;;19.02;53.37;98025.62;105551;1254;72427;-42
2023/11/18 09:17:52;;;;;;;1.40;1.10;;;;;;;19.02;53.39;98025.94;105570;1257;61234;-41
2023/11/18 09:20:22;;;;;;;1.60;1.10;;;;;;;19.02;53.32;98032.22;105659;1254;61682;-43
2023/11/18 09:22:49;;;;;;;3.10;1.30;;;;;;;19.02;53.33;98031.04;105523;1257;75580;-41
2023/11/18 09:25:15;;;;;;;1.30;1.20;;;;;;;19.02;53.42;98031.66;105482;1257;66129;-41
2023/11/18 09:27:42;;;;;;;3.10;1.20;;;;;;;19.02;53.47;98033.22;105689;1254;72383;-41
2023/11/18 09:30:13;;;;;;;3.80;1.30;;;;;;;19.02;53.42;98036.48;105543;1257;62971;-42
2023/11/18 09:32:47;;;;;;;1.70;1.20;;;;;;;19.02;53.52;98038.11;105559;1254;190003;-41
2023/11/18 09:35:14;;;;;;;4.00;1.20;;;;;;;19.02;53.42;98041.30;105591;1254;74382;-42
2023/11/18 09:37:40;;;;;;;3.80;1.30;;;;;;;19.02;53.40;98038.48;105538;1257;65654;-41
2023/11/18 09:40:18;;;;;;;2.20;1.20;;;;;;;19.02;53.43;98038.64;105713;1254;72631;-41
2023/11/18 09:42:44;;;;;;;2.90;1.30;;;;;;;19.02;53.31;98038.48;105820;1257;61221;-40
2023/11/18 09:45:14;;;;;;;3.70;1.30;;;;;;;19.02;53.29;98037.95;105823;1254;61372;-41
2023/11/18 09:47:47;;;;;;;3.10;1.10;;;;;;;19.02;53.43;98040.21;105647;1257;75051;-41
2023/11/18 09:50:17;;;;;;;2.10;1.20;;;;;;;19.02;53.28;98045.06;105593;1254;66191;-41
2023/11/18 09:52:51;;;;;;;1.40;1.30;;;;;;;19.02;53.46;98052.21;105644;1254;72591;-41
2023/11/18 09:55:36;;;;;;;1.60;1.10;;;;;;;19.01;53.33;98050.02;105646;1259;61359;-41
2023/11/18 09:58:04;;;;;;;2.10;1.30;;;;;;;19.01;53.40;98057.08;105818;1254;61340;-41
2023/11/18 10:00:34;;;;;;;1.20;1.10;;;;;;;19.01;53.33;98058.94;105711;1254;74347;-40
2023/11/18 10:03:01;;;;;;;1.60;1.20;;;;;;;19.01;53.38;98056.44;105562;1259;65965;-41
2023/11/18 10:05:30;;;;;;;2.00;1.30;;;;;;;19.01;53.27;98053.02;105504;1254;72602;-41
2023/11/18 10:07:59;;;;;;;1.80;1.40;;;;;;;19.01;53.44;98055.28;105682;1258;61692;-41
2023/11/18 10:10:35;;;;;;;2.30;1.40;;;;;;;19.01;53.41;98057.39;105787;1254;61238;-41
2023/11/18 10:13:04;;;;;;;1.30;1.20;;;;;;;19.01;53.43;98055.77;105708;1258;74412;-41
2023/11/18 10:15:31;;;;;;;1.40;1.30;;;;;;;19.01;53.40;98057.94;105933;1253;66307;-41
2023/11/18 10:18:06;;;;;;;1.20;1.10;;;;;;;19.01;53.34;98060.55;105616;1254;72517;-40
2023/11/18 10:20:40;;;;;;;1.70;1.30;;;;;;;19.01;53.39;98060.72;105704;1258;61173;-41
2023/11/18 10:23:11;;;;;;;1.50;1.10;;;;;;;19.01;53.37;98064.29;105679;1254;61433;-40
2023/11/18 10:25:45;;;;;;;1.50;1.30;;;;;;;19.01;53.34;98066.77;105729;1254;74435;-42
2023/11/18 10:28:27;;;;;;;1.60;1.30;;;;;;;19.01;53.28;98067.92;105452;1254;66172;-42
2023/11/18 10:31:03;;;;;;;1.40;1.10;;;;;;;19.01;53.37;98071.11;105655;1254;72427;-42
2023/11/18 10:33:31;;;;;;;2.30;1.30;;;;;;;19.01;53.18;98070.95;105760;1254;61281;-40
2023/11/18 10:36:03;;;;;;;1.40;1.10;;;;;;;19.01;53.34;98071.80;105724;1254;61390;-41
2023/11/18 10:38:47;;;;;;;1.30;1.20;;;;;;;19.00;53.36;98075.52;105515;1258;74491;-41
2023/11/18 10:41:13;;;;;;;3.20;1.30;;;;;;;19.01;53.23;98078.70;105480;1260;65539;-43
2023/11/18 10:43:41;;;;;;;1.30;1.20;;;;;;;19.01;53.27;98083.74;106730;1250;72558;-40
2023/11/18 10:46:13;;;;;;;1.50;1.40;;;;;;;19.00;53.34;98089.32;105637;1259;61234;-40
2023/11/18 10:48:50;;;;;;;1.80;1.20;;;;;;;19.01;53.25;98093.68;105640;1255;63821;-40
2023/11/18 10:51:19;;;;;;;2.10;1.40;;;;;;;19.01;53.36;98092.28;105561;1257;74442;-40
2023/11/18 10:53:53;;;;;;;1.40;1.20;;;;;;;19.01;53.36;98090.95;105425;1260;64816;-40
2023/11/18 10:56:26;;;;;;;1.30;1.20;;;;;;;19.01;53.29;98093.90;105625;1258;72322;-41
2023/11/18 10:58:54;;;;;;;2.10;1.30;;;;;;;19.01;53.31;98095.63;105407;1259;61288;-40
2023/11/18 11:01:28;;;;;;;1.60;1.40;;;;;;;19.01;53.27;98096.30;105627;1256;61343;-40
2023/11/18 11:03:57;;;;;;;2.90;1.50;;;;;;;19.01;53.21;98098.33;105530;1257;73398;-41
2023/11/18 11:06:26;;;;;;;1.30;1.10;;;;;;;19.01;53.23;98101.97;105500;1259;66171;-41
2023/11/18 11:08:53;;;;;;;1.60;1.20;;;;;;;19.01;53.20;98103.60;105417;1254;72525;-40
2023/11/18 11:11:21;;;;;;;1.60;1.40;;;;;;;19.01;53.18;98102.30;105428;1259;61308;-41
2023/11/18 11:14:06;;;;;;;1.80;1.30;;;;;;;19.01;53.25;98101.11;105476;1254;61366;-39
2023/11/18 11:16:45;;;;;;;1.40;1.00;;;;;;;19.01;53.32;98100.89;105339;1260;74584;-41
2023/11/18 11:19:26;;;;;;;1.60;1.10;;;;;;;19.01;53.30;98102.27;105510;1258;66196;-41
2023/11/18 11:22:02;;;;;;;1.30;1.20;;;;;;;19.00;53.29;98099.79;105462;1255;72600;-41
2023/11/18 11:25:09;;;;;;;2.30;1.50;;;;;;;19.00;53.31;98107.39;105555;1257;61259;-39
2023/11/18 11:27:51;;;;;;;1.20;1.10;;;;;;;19.00;53.32;98113.20;105505;1254;61227;-40
2023/11/18 11:30:25;;;;;;;1.40;1.30;;;;;;;19.00;53.26;98117.16;105732;1255;74401;-40
2023/11/18 11:32:53;;;;;;;1.40;1.10;;;;;;;19.00;53.28;98115.91;105692;1260;65638;-40
2023/11/18 11:35:24;;;;;;;1.50;1.40;;;;;;;19.00;53.22;98122.42;105625;1254;72986;-40